Time;durP1;ratioP1;P1;durP2;ratioP2;P2;SDS_P1;SDS_P2;PMS_P1;PMS_P2;Temp;Humidity;BMP_temperature;BMP_pressure;BME280_temperature;BME280_humidity;BME280_pressure;Samples;Min_cycle;Max_cycle;Signal;HPM_P1;HPM_P2
2022/03/31 00:02:13;;;;;;;7.82;5.60;;;17.70;56.10;;;;;;4973975;28;20058;-77
2022/03/31 00:04:39;;;;;;;7.32;5.47;;;17.70;56.10;;;;;;4972691;28;20042;-76
2022/03/31 00:07:05;;;;;;;8.98;5.82;;;17.70;56.10;;;;;;4974116;28;20464;-78
2022/03/31 00:09:31;;;;;;;7.38;6.03;;;17.70;56.10;;;;;;4973597;28;20102;-77
2022/03/31 00:12:00;;;;;;;7.65;5.68;;;17.70;56.10;;;;;;4973871;28;20082;-78
2022/03/31 00:14:27;;;;;;;7.72;5.43;;;17.70;56.10;;;;;;4972334;28;20381;-78
2022/03/31 00:16:53;;;;;;;8.05;5.93;;;17.60;56.10;;;;;;4973824;28;20053;-74
2022/03/31 00:19:18;;;;;;;9.07;5.53;;;17.70;56.20;;;;;;4973588;28;20090;-75
2022/03/31 00:21:44;;;;;;;7.80;5.25;;;17.70;56.20;;;;;;4974365;28;20019;-76
2022/03/31 00:24:10;;;;;;;6.65;5.35;;;17.70;56.20;;;;;;4973723;28;20030;-77
2022/03/31 00:26:35;;;;;;;7.13;5.82;;;17.60;56.10;;;;;;4972237;28;20109;-77
2022/03/31 00:29:01;;;;;;;8.23;6.13;;;17.60;56.10;;;;;;4973588;28;20037;-76
2022/03/31 00:31:27;;;;;;;7.18;5.18;;;17.60;56.20;;;;;;4973214;28;20098;-76
2022/03/31 00:33:53;;;;;;;7.75;5.65;;;17.60;56.20;;;;;;4973587;28;20102;-77
2022/03/31 00:36:18;;;;;;;7.85;4.97;;;17.60;56.20;;;;;;4973111;28;20062;-77
2022/03/31 00:39:28;;;;;;;11.02;6.10;;;17.70;56.20;;;;;;4973458;28;20050;-76
2022/03/31 00:41:38;;;;;;;9.57;6.07;;;17.60;56.10;;;;;;4973110;28;20038;-76
2022/03/31 00:44:04;;;;;;;8.30;6.22;;;17.60;56.10;;;;;;4971949;28;20042;-77
2022/03/31 00:46:30;;;;;;;8.18;5.88;;;17.70;56.20;;;;;;4972920;28;20019;-76
2022/03/31 00:48:56;;;;;;;8.80;6.15;;;17.70;56.20;;;;;;4973073;28;20093;-75
2022/03/31 00:51:22;;;;;;;7.28;5.70;;;17.60;56.10;;;;;;4973022;28;20037;-75
2022/03/31 00:53:47;;;;;;;6.75;5.10;;;17.70;56.20;;;;;;4973250;28;20031;-77
2022/03/31 00:56:16;;;;;;;7.55;5.90;;;17.70;56.10;;;;;;4973335;28;20023;-77
2022/03/31 00:58:43;;;;;;;7.85;5.38;;;17.70;56.20;;;;;;4971908;28;20030;-77
2022/03/31 01:01:10;;;;;;;9.10;5.90;;;17.70;56.10;;;;;;4973003;28;20142;-77
2022/03/31 01:03:36;;;;;;;7.90;5.07;;;17.70;56.10;;;;;;4972622;28;20039;-75
2022/03/31 01:06:02;;;;;;;7.85;5.40;;;17.70;56.10;;;;;;4973056;28;20364;-75
2022/03/31 01:08:27;;;;;;;8.40;5.45;;;17.70;56.10;;;;;;4972758;28;20074;-76
2022/03/31 01:10:53;;;;;;;7.50;5.40;;;17.60;56.00;;;;;;4972992;28;20085;-76
2022/03/31 01:13:19;;;;;;;9.23;5.18;;;17.60;56.00;;;;;;4972750;28;20034;-77
2022/03/31 01:15:45;;;;;;;8.00;5.43;;;17.70;56.00;;;;;;4972014;28;20034;-77
2022/03/31 01:18:11;;;;;;;8.07;5.30;;;17.70;56.00;;;;;;4972886;28;20467;-76
2022/03/31 01:20:36;;;;;;;9.43;5.45;;;17.70;56.00;;;;;;4972418;28;20513;-76
2022/03/31 01:23:04;;;;;;;6.65;4.78;;;17.70;56.00;;;;;;4972565;28;20131;-74
2022/03/31 01:25:30;;;;;;;7.70;5.50;;;17.70;56.00;;;;;;4972320;28;20022;-76
2022/03/31 01:27:56;;;;;;;8.65;5.28;;;17.60;55.90;;;;;;4971420;28;20475;-76
2022/03/31 01:30:23;;;;;;;8.15;5.20;;;17.60;55.80;;;;;;4972356;28;20105;-78
2022/03/31 01:32:49;;;;;;;7.47;5.15;;;17.60;55.80;;;;;;4972453;28;20557;-77
2022/03/31 01:35:16;;;;;;;8.82;5.38;;;17.70;55.90;;;;;;4972910;28;20089;-79
2022/03/31 01:37:43;;;;;;;7.15;5.00;;;17.70;55.90;;;;;;4972677;28;20015;-75
2022/03/31 01:40:09;;;;;;;8.40;5.13;;;17.70;55.90;;;;;;4972545;28;20030;-76
2022/03/31 01:42:36;;;;;;;9.13;5.03;;;17.70;55.90;;;;;;4972316;28;20022;-77
2022/03/31 01:45:04;;;;;;;7.63;4.85;;;17.70;55.90;;;;;;4972628;28;20035;-77
2022/03/31 01:47:29;;;;;;;7.20;4.55;;;17.60;55.80;;;;;;4971944;28;20027;-78
2022/03/31 01:49:55;;;;;;;10.25;5.47;;;17.60;55.80;;;;;;4977924;28;20038;-76
2022/03/31 01:52:23;;;;;;;7.05;5.00;;;17.70;55.90;;;;;;4978646;28;20042;-77
2022/03/31 01:54:50;;;;;;;7.13;5.00;;;17.70;56.40;;;;;;4978719;28;20061;-77
2022/03/31 01:57:15;;;;;;;5.45;4.40;;;17.60;55.80;;;;;;4979050;28;20019;-75
2022/03/31 01:59:42;;;;;;;6.50;4.60;;;17.70;55.90;;;;;;4978581;28;20037;-78
2022/03/31 02:02:09;;;;;;;9.02;5.43;;;17.70;55.90;;;;;;4978854;28;20141;-78
2022/03/31 02:04:36;;;;;;;6.93;4.70;;;17.70;55.80;;;;;;4977215;28;20034;-78
2022/03/31 02:07:01;;;;;;;7.13;5.15;;;17.70;55.90;;;;;;4978645;28;20047;-78
2022/03/31 02:09:27;;;;;;;6.82;4.80;;;17.70;55.80;;;;;;4978361;28;20134;-77
2022/03/31 02:11:53;;;;;;;6.15;4.50;;;17.70;55.90;;;;;;4978719;28;20046;-76
2022/03/31 02:14:22;;;;;;;8.18;5.20;;;17.70;55.80;;;;;;4978452;28;20490;-76
2022/03/31 02:16:48;;;;;;;6.65;4.63;;;17.60;55.80;;;;;;4977515;28;20030;-77
2022/03/31 02:19:14;;;;;;;6.28;4.30;;;17.70;55.80;;;;;;4979133;28;20027;-77
2022/03/31 02:21:40;;;;;;;5.85;4.25;;;17.70;55.80;;;;;;4978502;28;20031;-78
2022/03/31 02:24:08;;;;;;;5.63;3.95;;;17.70;55.80;;;;;;4978441;28;20516;-77
2022/03/31 02:26:35;;;;;;;7.97;4.95;;;17.70;55.80;;;;;;4976972;28;20023;-77
2022/03/31 02:29:01;;;;;;;6.85;4.47;;;17.70;55.80;;;;;;4978533;28;20119;-76
2022/03/31 02:31:27;;;;;;;8.30;4.82;;;17.70;55.80;;;;;;4978262;28;20510;-76
2022/03/31 02:33:52;;;;;;;5.70;3.80;;;17.70;55.80;;;;;;4978436;28;20039;-76
2022/03/31 02:36:19;;;;;;;6.20;3.95;;;17.60;55.80;;;;;;4978345;28;20054;-77
2022/03/31 02:38:45;;;;;;;6.32;4.50;;;17.70;55.90;;;;;;4978727;28;20526;-77
2022/03/31 02:41:11;;;;;;;6.15;4.07;;;17.70;55.80;;;;;;4978292;28;20023;-78
2022/03/31 02:43:37;;;;;;;6.32;4.32;;;17.70;55.80;;;;;;4977815;28;20034;-78
2022/03/31 02:46:02;;;;;;;6.93;4.00;;;17.70;55.80;;;;;;4978209;28;20027;-76
2022/03/31 02:48:28;;;;;;;5.65;3.70;;;17.70;55.80;;;;;;4976722;28;20074;-77
2022/03/31 02:50:54;;;;;;;4.22;3.17;;;17.70;55.80;;;;;;4978106;28;20031;-77
2022/03/31 02:56:04;;;;;;;8.02;3.95;;;17.70;55.80;;;;;;4978113;28;20029;-78
2022/03/31 02:58:30;;;;;;;5.63;3.40;;;17.70;55.70;;;;;;4977841;28;20110;-76
2022/03/31 03:00:56;;;;;;;5.97;3.30;;;17.70;55.70;;;;;;4974751;28;20050;-77
2022/03/31 03:03:22;;;;;;;7.20;3.10;;;17.70;55.70;;;;;;4974533;28;20083;-77
2022/03/31 03:05:48;;;;;;;4.43;3.20;;;17.70;55.70;;;;;;4974993;28;20023;-78
2022/03/31 03:08:15;;;;;;;5.72;3.15;;;17.70;55.60;;;;;;4975357;28;20089;-76
2022/03/31 03:10:41;;;;;;;4.00;2.63;;;17.70;55.70;;;;;;4974616;28;20018;-76
2022/03/31 03:13:08;;;;;;;6.05;2.95;;;17.70;55.60;;;;;;4973576;28;20022;-77
2022/03/31 03:15:33;;;;;;;3.70;2.38;;;17.70;55.60;;;;;;4974678;28;20038;-76
2022/03/31 03:17:59;;;;;;;7.38;2.78;;;17.70;55.60;;;;;;4974884;28;20026;-76
2022/03/31 03:20:25;;;;;;;5.63;2.72;;;17.70;55.60;;;;;;4974620;28;20483;-75
2022/03/31 03:22:52;;;;;;;3.65;2.70;;;17.70;55.50;;;;;;4973549;28;20035;-76
2022/03/31 03:25:19;;;;;;;3.97;2.53;;;17.70;55.50;;;;;;4981189;28;20030;-75
2022/03/31 03:27:46;;;;;;;4.70;2.78;;;17.70;55.50;;;;;;4994151;28;20471;-76
2022/03/31 03:30:12;;;;;;;3.78;2.53;;;17.70;55.40;;;;;;4993300;28;20027;-75
2022/03/31 03:32:39;;;;;;;4.88;2.80;;;17.70;55.40;;;;;;4993379;28;20506;-77
2022/03/31 03:35:07;;;;;;;4.43;2.40;;;17.70;55.40;;;;;;4993774;28;20565;-77
2022/03/31 03:37:33;;;;;;;3.25;2.40;;;17.70;55.30;;;;;;4993338;28;20030;-77
2022/03/31 03:40:02;;;;;;;3.47;2.47;;;17.70;55.30;;;;;;4993525;28;20052;-78
2022/03/31 03:42:28;;;;;;;4.72;2.75;;;17.70;55.20;;;;;;4993379;28;20033;-78
2022/03/31 03:44:54;;;;;;;5.13;3.00;;;17.70;55.20;;;;;;4993123;28;20044;-77
2022/03/31 03:47:20;;;;;;;3.88;2.10;;;17.70;55.20;;;;;;4990323;28;20093;-77
2022/03/31 03:49:46;;;;;;;2.70;2.20;;;17.70;55.20;;;;;;4974240;28;20029;-76
2022/03/31 03:52:12;;;;;;;4.10;2.10;;;17.70;55.10;;;;;;4974066;28;20113;-77
2022/03/31 03:54:37;;;;;;;4.53;2.33;;;17.70;55.10;;;;;;4973854;28;20031;-78
2022/03/31 03:57:04;;;;;;;3.05;1.90;;;17.70;55.10;;;;;;4974218;28;20023;-77
2022/03/31 03:59:29;;;;;;;3.30;2.35;;;17.70;55.00;;;;;;4973766;28;20134;-76
2022/03/31 04:01:55;;;;;;;3.55;2.00;;;17.70;55.00;;;;;;4974027;28;20113;-76
2022/03/31 04:04:21;;;;;;;3.65;2.50;;;17.70;55.00;;;;;;4973769;28;20487;-76
2022/03/31 04:06:46;;;;;;;5.28;2.22;;;17.70;54.90;;;;;;4956611;28;20023;-77
2022/03/31 04:09:12;;;;;;;2.78;1.55;;;17.70;54.90;;;;;;4973688;28;20031;-76
2022/03/31 04:11:37;;;;;;;2.80;2.03;;;17.80;54.90;;;;;;4973166;28;20491;-78
2022/03/31 04:14:03;;;;;;;3.45;2.25;;;17.70;54.90;;;;;;4973566;28;20058;-77
2022/03/31 04:16:29;;;;;;;3.17;1.80;;;17.70;54.80;;;;;;4973317;28;20105;-77
2022/03/31 04:18:55;;;;;;;3.22;1.83;;;17.80;54.80;;;;;;4973472;28;20027;-77
2022/03/31 04:21:21;;;;;;;4.68;1.58;;;17.70;54.70;;;;;;4973493;28;20107;-77
2022/03/31 04:23:46;;;;;;;2.95;2.00;;;17.80;54.70;;;;;;4973710;28;20031;-76
2022/03/31 04:26:12;;;;;;;2.80;1.42;;;17.80;54.60;;;;;;4979034;28;20030;-76
2022/03/31 04:28:38;;;;;;;2.38;1.83;;;17.70;54.50;;;;;;4992392;28;20026;-76
2022/03/31 04:31:03;;;;;;;3.50;1.60;;;17.80;54.50;;;;;;4992304;28;20054;-76
2022/03/31 04:33:29;;;;;;;3.00;1.55;;;17.70;55.00;;;;;;4992310;28;20034;-77
2022/03/31 04:35:56;;;;;;;1.83;1.50;;;17.80;54.40;;;;;;4974878;28;20093;-77
2022/03/31 04:38:21;;;;;;;3.75;2.10;;;17.80;54.40;;;;;;4990650;28;20034;-75
2022/03/31 04:40:47;;;;;;;2.38;1.67;;;17.80;54.30;;;;;;4992853;28;20478;-75
2022/03/31 04:43:13;;;;;;;3.25;1.55;;;17.80;54.20;;;;;;4992303;28;20030;-75
2022/03/31 04:45:39;;;;;;;2.90;1.63;;;17.80;54.20;;;;;;4992316;28;20480;-76
2022/03/31 04:48:05;;;;;;;4.35;1.60;;;17.80;54.20;;;;;;4992513;28;20027;-76
2022/03/31 04:50:30;;;;;;;2.05;1.35;;;17.80;54.10;;;;;;4991823;28;20470;-76
2022/03/31 04:52:56;;;;;;;2.03;1.50;;;17.80;54.20;;;;;;4974362;28;20118;-77
2022/03/31 04:55:22;;;;;;;2.10;1.40;;;17.80;54.20;;;;;;4991763;28;20049;-78
2022/03/31 04:57:47;;;;;;;2.60;1.20;;;17.80;54.10;;;;;;4975258;28;20022;-76
2022/03/31 05:00:13;;;;;;;1.80;1.30;;;17.80;54.10;;;;;;4991435;28;20037;-77
2022/03/31 05:02:39;;;;;;;2.00;1.27;;;17.80;54.10;;;;;;4993420;28;20027;-76
2022/03/31 05:05:05;;;;;;;1.60;1.30;;;17.80;54.60;;;;;;4999910;28;20034;-76
2022/03/31 05:07:31;;;;;;;1.90;1.20;;;17.80;54.00;;;;;;4962753;28;20114;-75
2022/03/31 05:09:57;;;;;;;3.50;1.27;;;17.80;53.90;;;;;;4964655;28;20117;-77
2022/03/31 05:12:23;;;;;;;1.73;1.20;;;17.80;53.70;;;;;;4991749;28;20038;-76
2022/03/31 05:14:48;;;;;;;2.03;1.33;;;17.80;53.60;;;;;;4992516;28;20031;-75
2022/03/31 05:17:14;;;;;;;1.50;1.10;;;17.80;53.60;;;;;;4990361;28;20034;-77
2022/03/31 05:19:39;;;;;;;1.70;1.20;;;17.90;53.50;;;;;;4991566;28;20441;-77
2022/03/31 05:22:05;;;;;;;2.47;1.33;;;17.90;53.50;;;;;;4991822;28;20491;-78
2022/03/31 05:24:31;;;;;;;2.88;1.10;;;17.90;54.00;;;;;;4961464;28;20556;-78
2022/03/31 05:26:57;;;;;;;2.47;1.00;;;17.90;53.50;;;;;;4974284;28;20034;-78
2022/03/31 05:29:22;;;;;;;2.28;1.27;;;17.90;53.50;;;;;;4991308;28;20030;-79
2022/03/31 05:31:50;;;;;;;3.03;1.00;;;17.90;53.40;;;;;;4992350;28;20406;-77
2022/03/31 05:34:16;;;;;;;1.75;1.15;;;17.90;53.40;;;;;;4984211;28;20054;-79
2022/03/31 05:36:42;;;;;;;2.47;1.13;;;17.90;53.50;;;;;;4986138;28;20038;-76
2022/03/31 05:39:07;;;;;;;1.80;1.10;;;17.90;53.50;;;;;;4991383;28;20387;-76
2022/03/31 05:41:34;;;;;;;1.77;1.02;;;17.90;53.50;;;;;;4991730;28;20030;-76
2022/03/31 05:44:00;;;;;;;1.92;0.93;;;17.90;53.60;;;;;;4991769;28;20045;-79
2022/03/31 05:46:26;;;;;;;1.13;0.80;;;17.90;53.50;;;;;;4991004;28;20398;-76
2022/03/31 05:48:53;;;;;;;3.38;1.00;;;17.90;53.60;;;;;;4991051;28;20030;-76
2022/03/31 05:51:18;;;;;;;1.02;0.70;;;17.90;53.50;;;;;;4990406;28;20030;-76
2022/03/31 05:53:44;;;;;;;1.30;0.80;;;17.90;53.50;;;;;;4982087;28;20037;-76
2022/03/31 05:56:10;;;;;;;1.10;0.90;;;18.00;53.80;;;;;;4987237;28;20081;-77
2022/03/31 05:58:36;;;;;;;1.85;0.70;;;18.00;54.00;;;;;;4981289;28;20054;-75
2022/03/31 06:01:02;;;;;;;3.10;0.90;;;18.00;54.20;;;;;;4991712;28;20474;-76
2022/03/31 06:03:28;;;;;;;5.30;1.17;;;18.00;54.40;;;;;;4991119;28;20034;-76
2022/03/31 06:05:53;;;;;;;3.78;1.45;;;18.00;54.60;;;;;;4978145;28;20023;-75
2022/03/31 06:08:19;;;;;;;2.10;1.13;;;18.00;54.80;;;;;;4974666;28;20515;-76
2022/03/31 06:10:45;;;;;;;3.70;1.30;;;18.10;55.00;;;;;;4980742;28;20105;-76
2022/03/31 06:13:12;;;;;;;2.38;1.30;;;18.10;55.10;;;;;;4986009;28;20514;-76
2022/03/31 06:15:38;;;;;;;1.80;1.15;;;18.10;55.20;;;;;;4991499;28;20034;-76
2022/03/31 06:18:04;;;;;;;2.42;1.05;;;18.10;55.30;;;;;;4974083;28;20031;-77
2022/03/31 06:20:31;;;;;;;3.92;1.10;;;18.10;55.20;;;;;;4973972;28;20034;-76
2022/03/31 06:22:57;;;;;;;2.28;1.10;;;18.20;55.10;;;;;;4991400;28;20031;-76
2022/03/31 06:25:23;;;;;;;2.63;1.00;;;18.20;55.00;;;;;;4991254;28;20479;-77
2022/03/31 06:27:49;;;;;;;4.75;1.00;;;18.20;55.00;;;;;;4991716;28;20113;-75
2022/03/31 06:30:16;;;;;;;3.22;1.08;;;18.10;54.80;;;;;;4991406;28;20475;-77
2022/03/31 06:32:42;;;;;;;2.72;1.00;;;18.20;54.80;;;;;;4991082;28;20026;-76
2022/03/31 06:35:11;;;;;;;1.45;0.90;;;18.20;54.70;;;;;;4989372;28;20451;-76
2022/03/31 06:37:38;;;;;;;2.13;1.10;;;18.20;54.60;;;;;;4973684;28;20053;-78
2022/03/31 06:40:05;;;;;;;1.73;1.25;;;18.20;54.60;;;;;;4995139;28;20101;-78
2022/03/31 06:42:30;;;;;;;3.67;1.00;;;18.20;54.50;;;;;;4975008;28;20023;-73
2022/03/31 06:44:56;;;;;;;3.03;0.93;;;18.20;54.40;;;;;;4991024;28;20037;-77
2022/03/31 06:47:22;;;;;;;1.58;1.15;;;18.20;54.30;;;;;;4994106;28;20104;-77
2022/03/31 06:49:48;;;;;;;6.07;1.10;;;18.20;54.30;;;;;;4995504;28;20034;-76
2022/03/31 06:52:14;;;;;;;1.50;0.90;;;18.20;54.00;;;;;;4989289;28;20026;-77
2022/03/31 06:54:39;;;;;;;4.50;1.27;;;18.20;54.10;;;;;;4993627;28;20088;-77
2022/03/31 06:57:05;;;;;;;3.85;1.13;;;18.20;54.00;;;;;;4993649;28;20026;-79
2022/03/31 06:59:31;;;;;;;1.98;0.95;;;18.20;53.90;;;;;;4976186;28;20035;-79
2022/03/31 07:01:57;;;;;;;2.33;1.27;;;18.20;54.00;;;;;;4994603;28;20071;-79
2022/03/31 07:04:23;;;;;;;1.75;1.10;;;18.20;54.00;;;;;;4994282;28;20038;-79
2022/03/31 07:06:49;;;;;;;1.65;1.20;;;18.20;53.90;;;;;;4977399;28;20125;-79
2022/03/31 07:09:15;;;;;;;2.65;0.98;;;18.30;53.90;;;;;;4994467;28;20036;-80
2022/03/31 07:11:41;;;;;;;2.38;0.90;;;18.20;53.80;;;;;;4994317;28;20402;-80
2022/03/31 07:14:07;;;;;;;3.13;1.15;;;18.30;53.80;;;;;;4994472;28;20026;-79
2022/03/31 07:16:33;;;;;;;1.60;0.73;;;18.30;53.70;;;;;;4994147;28;20110;-79
2022/03/31 07:19:01;;;;;;;3.22;1.00;;;18.30;53.60;;;;;;4994541;28;20037;-76
2022/03/31 07:21:27;;;;;;;1.42;0.88;;;18.30;53.60;;;;;;4994023;28;20022;-79
2022/03/31 07:23:53;;;;;;;1.70;0.80;;;18.30;53.50;;;;;;4994218;28;20088;-79
2022/03/31 07:26:20;;;;;;;2.80;0.82;;;18.30;53.40;;;;;;4994555;28;20441;-79
2022/03/31 07:28:46;;;;;;;1.27;0.85;;;18.30;53.30;;;;;;4994147;28;20498;-79
2022/03/31 07:31:12;;;;;;;1.02;0.60;;;18.30;53.30;;;;;;4976650;28;20054;-79
2022/03/31 07:33:38;;;;;;;0.90;0.60;;;18.30;53.20;;;;;;4993774;28;20038;-79
2022/03/31 07:36:06;;;;;;;1.42;0.73;;;18.30;53.20;;;;;;4994002;28;20011;-78
2022/03/31 07:38:32;;;;;;;2.10;0.70;;;18.30;53.10;;;;;;4993688;28;20022;-78
2022/03/31 07:40:58;;;;;;;1.10;0.60;;;18.30;53.00;;;;;;4994041;28;20034;-78
2022/03/31 07:43:24;;;;;;;1.65;0.77;;;18.30;53.00;;;;;;4976112;28;20030;-77
2022/03/31 07:45:51;;;;;;;1.42;0.60;;;18.40;53.00;;;;;;4994036;28;20022;-75
2022/03/31 07:48:18;;;;;;;0.88;0.63;;;18.40;52.90;;;;;;4976264;28;20529;-77
2022/03/31 07:50:44;;;;;;;3.33;0.60;;;18.40;52.80;;;;;;4976001;28;20041;-76
2022/03/31 07:53:10;;;;;;;0.68;0.50;;;18.40;52.80;;;;;;4993826;28;20487;-77
2022/03/31 07:55:36;;;;;;;3.42;0.68;;;18.40;52.70;;;;;;4976123;28;20125;-76
2022/03/31 07:58:02;;;;;;;1.23;0.70;;;18.40;52.60;;;;;;4973599;28;20077;-73
2022/03/31 08:00:28;;;;;;;1.45;0.60;;;18.40;52.40;;;;;;4991363;28;20088;-76
2022/03/31 08:02:55;;;;;;;1.83;0.60;;;18.40;52.70;;;;;;4992484;28;20034;-75
2022/03/31 08:05:23;;;;;;;1.27;0.70;;;18.50;52.40;;;;;;4992716;28;20064;-73
2022/03/31 08:07:49;;;;;;;2.22;0.45;;;18.50;52.40;;;;;;4995068;28;20026;-73
2022/03/31 08:10:16;;;;;;;0.95;0.60;;;18.50;52.40;;;;;;4992726;28;20030;-74
2022/03/31 08:12:44;;;;;;;1.25;0.60;;;18.50;52.40;;;;;;4985984;28;20045;-73
2022/03/31 08:15:10;;;;;;;0.95;0.60;;;18.50;52.30;;;;;;4991214;28;20041;-73
2022/03/31 08:17:38;;;;;;;1.55;1.08;;;18.50;52.90;;;;;;4974682;28;20026;-76
2022/03/31 08:20:06;;;;;;;4.35;1.48;;;18.50;52.20;;;;;;4992307;28;20037;-73
2022/03/31 08:22:31;;;;;;;2.35;1.33;;;18.60;52.40;;;;;;4992334;28;20034;-75
2022/03/31 08:24:57;;;;;;;3.55;1.30;;;18.60;52.60;;;;;;4992740;28;20376;-74
2022/03/31 08:27:22;;;;;;;1.85;1.10;;;18.60;52.80;;;;;;4974913;28;20023;-74
2022/03/31 08:29:48;;;;;;;2.20;0.95;;;18.60;52.90;;;;;;4992713;28;20026;-73
2022/03/31 08:32:15;;;;;;;2.60;1.10;;;18.60;52.80;;;;;;4974680;28;20019;-75
2022/03/31 08:34:41;;;;;;;2.70;0.80;;;18.60;52.70;;;;;;4981684;28;20363;-74
2022/03/31 08:37:07;;;;;;;1.40;0.90;;;18.60;52.40;;;;;;4992259;28;20026;-74
2022/03/31 08:39:33;;;;;;;3.05;0.80;;;18.70;52.30;;;;;;4992016;28;20030;-74
2022/03/31 08:41:58;;;;;;;1.77;0.77;;;18.70;52.20;;;;;;4992159;28;20568;-74
2022/03/31 08:44:25;;;;;;;1.02;0.70;;;18.70;52.10;;;;;;4973004;28;20114;-74
2022/03/31 08:46:51;;;;;;;2.67;1.23;;;18.70;52.00;;;;;;4979912;28;20402;-73
2022/03/31 08:49:17;;;;;;;2.70;0.80;;;18.70;52.20;;;;;;4991994;28;20022;-75
2022/03/31 08:51:44;;;;;;;2.00;0.80;;;18.70;52.20;;;;;;4992082;28;20040;-75
2022/03/31 08:54:10;;;;;;;1.33;0.50;;;18.80;52.30;;;;;;4991830;28;20026;-76
2022/03/31 08:56:37;;;;;;;2.33;0.80;;;18.80;52.10;;;;;;4992495;28;20030;-75
2022/03/31 08:59:03;;;;;;;2.30;0.70;;;18.70;52.00;;;;;;4990765;28;20026;-76
2022/03/31 09:01:32;;;;;;;0.80;0.52;;;18.80;52.10;;;;;;4984943;28;20034;-75
2022/03/31 09:03:58;;;;;;;1.05;0.70;;;18.80;52.00;;;;;;4992223;28;20038;-75
2022/03/31 09:06:25;;;;;;;1.77;0.70;;;18.80;51.90;;;;;;4992010;28;20030;-76
2022/03/31 09:09:10;;;;;;;2.95;0.73;;;18.80;51.90;;;;;;4992490;28;20026;-74
2022/03/31 09:11:37;;;;;;;1.23;0.75;;;18.80;51.90;;;;;;4992455;28;20029;-76
2022/03/31 09:14:06;;;;;;;0.98;0.88;;;18.80;51.90;;;;;;4974404;28;20490;-76
2022/03/31 09:16:36;;;;;;;0.82;0.50;;;18.80;51.80;;;;;;4970023;28;20027;-73
2022/03/31 09:19:04;;;;;;;1.55;0.73;;;18.80;51.80;;;;;;4981660;28;20022;-75
2022/03/31 09:21:35;;;;;;;1.25;0.70;;;18.80;51.60;;;;;;4972782;28;20494;-75
2022/03/31 09:24:02;;;;;;;2.75;0.70;;;18.80;51.60;;;;;;4974162;28;20077;-75
2022/03/31 09:26:31;;;;;;;1.45;0.60;;;18.80;51.50;;;;;;4974121;28;20100;-75
2022/03/31 09:29:11;;;;;;;1.02;0.60;;;18.90;51.60;;;;;;4991690;28;20030;-75
2022/03/31 09:31:36;;;;;;;3.00;0.60;;;18.90;51.50;;;;;;4991082;28;20034;-74
2022/03/31 09:34:02;;;;;;;0.88;0.60;;;18.90;51.50;;;;;;4991449;28;20034;-75
2022/03/31 09:36:27;;;;;;;1.38;0.50;;;18.90;51.40;;;;;;4991374;28;20368;-75
2022/03/31 09:39:07;;;;;;;1.58;0.60;;;18.90;51.40;;;;;;4991508;28;20394;-75
2022/03/31 09:41:36;;;;;;;1.52;0.70;;;18.90;51.40;;;;;;4991333;28;20069;-74
2022/03/31 09:44:04;;;;;;;1.63;0.80;;;18.90;51.40;;;;;;4989719;28;20046;-75
2022/03/31 09:46:35;;;;;;;1.33;0.88;;;18.90;51.40;;;;;;4991153;28;20097;-76
2022/03/31 09:49:16;;;;;;;1.27;0.60;;;18.90;51.30;;;;;;4991175;28;20451;-76
2022/03/31 09:51:43;;;;;;;0.82;0.40;;;18.90;51.20;;;;;;4991134;28;20030;-76
2022/03/31 09:54:09;;;;;;;1.10;0.43;;;18.80;51.20;;;;;;4990905;28;20031;-76
2022/03/31 09:56:38;;;;;;;1.15;0.50;;;18.90;51.30;;;;;;4991045;28;20403;-75
2022/03/31 09:59:07;;;;;;;0.77;0.40;;;18.90;51.30;;;;;;4991248;28;20036;-76
2022/03/31 10:01:33;;;;;;;3.90;0.63;;;18.80;51.20;;;;;;4990552;28;20486;-75
2022/03/31 10:04:00;;;;;;;0.90;0.60;;;18.80;51.30;;;;;;4991021;28;20070;-74
2022/03/31 10:06:26;;;;;;;2.10;0.70;;;18.80;51.20;;;;;;4990923;28;20038;-75
2022/03/31 10:08:53;;;;;;;0.93;0.50;;;18.90;51.20;;;;;;4973576;28;20034;-76
2022/03/31 10:11:20;;;;;;;2.05;0.65;;;18.90;51.10;;;;;;4977516;28;20080;-76
2022/03/31 10:13:56;;;;;;;1.65;0.50;;;18.90;51.10;;;;;;4977885;28;20034;-75
2022/03/31 10:16:50;;;;;;;0.57;0.47;;;18.90;51.10;;;;;;4977290;28;20018;-75
2022/03/31 10:19:26;;;;;;;1.00;0.57;;;18.90;51.00;;;;;;4980751;28;20461;-75
2022/03/31 10:25:00;;;;;;;1.67;0.52;;;18.90;50.90;;;;;;4995089;28;20054;-76
2022/03/31 10:27:30;;;;;;;1.13;0.40;;;18.90;50.90;;;;;;4995020;28;20049;-75
2022/03/31 10:30:17;;;;;;;1.25;0.40;;;18.90;50.90;;;;;;4995252;28;20027;-76
2022/03/31 10:32:57;;;;;;;0.77;0.40;;;18.90;50.80;;;;;;4995087;28;20026;-75
2022/03/31 10:35:27;;;;;;;2.08;0.60;;;18.90;50.70;;;;;;4994999;28;20035;-76
2022/03/31 10:37:53;;;;;;;1.35;0.60;;;18.90;50.60;;;;;;4995062;28;20069;-75
2022/03/31 10:40:42;;;;;;;1.85;0.60;;;19.00;50.70;;;;;;4995007;28;20030;-75
2022/03/31 10:43:20;;;;;;;1.20;0.38;;;19.00;50.60;;;;;;4977221;28;20030;-75
2022/03/31 10:45:47;;;;;;;1.38;0.52;;;19.00;50.50;;;;;;4977734;28;20027;-75
2022/03/31 10:48:22;;;;;;;2.08;0.65;;;19.00;50.50;;;;;;4977598;28;20032;-76
2022/03/31 10:51:10;;;;;;;1.50;0.40;;;19.00;50.50;;;;;;4993980;28;20034;-75
2022/03/31 10:53:40;;;;;;;1.08;0.60;;;19.00;50.40;;;;;;4975693;28;20043;-75
2022/03/31 10:56:24;;;;;;;0.95;0.40;;;19.00;50.50;;;;;;4967545;28;20117;-76
2022/03/31 10:58:53;;;;;;;1.45;0.52;;;19.00;50.50;;;;;;4975517;28;20027;-74
2022/03/31 11:01:20;;;;;;;2.35;0.50;;;19.00;50.40;;;;;;4976882;28;20033;-75
2022/03/31 11:03:47;;;;;;;1.80;0.55;;;19.00;50.30;;;;;;4994926;28;20122;-76
2022/03/31 11:06:14;;;;;;;1.45;0.52;;;19.00;50.20;;;;;;4969309;28;20495;-75
2022/03/31 11:08:47;;;;;;;1.88;0.55;;;19.00;50.30;;;;;;4971559;28;20034;-74
2022/03/31 11:11:20;;;;;;;2.28;0.40;;;19.00;50.40;;;;;;4976979;28;20022;-75
2022/03/31 11:13:46;;;;;;;0.90;0.52;;;19.00;50.50;;;;;;4992881;28;20073;-73
2022/03/31 11:16:15;;;;;;;1.52;0.40;;;19.00;50.50;;;;;;4975681;28;20438;-75
2022/03/31 11:18:41;;;;;;;0.82;0.50;;;19.00;50.60;;;;;;4993781;28;20060;-77
2022/03/31 11:21:07;;;;;;;0.70;0.43;;;18.90;50.60;;;;;;4992738;28;20015;-75
2022/03/31 11:23:33;;;;;;;0.95;0.40;;;18.90;50.70;;;;;;4988569;28;20553;-75
2022/03/31 11:25:58;;;;;;;0.90;0.40;;;18.90;50.90;;;;;;4986300;28;20023;-76
2022/03/31 11:28:30;;;;;;;1.27;0.50;;;18.90;51.10;;;;;;4988646;28;20057;-75
2022/03/31 11:30:59;;;;;;;2.13;0.60;;;18.90;51.20;;;;;;4992102;28;20022;-76
2022/03/31 11:33:34;;;;;;;1.88;0.77;;;18.90;51.30;;;;;;4974070;28;20039;-76
2022/03/31 11:35:59;;;;;;;1.70;0.52;;;18.80;51.90;;;;;;4974533;28;20561;-77
2022/03/31 11:38:25;;;;;;;1.67;0.82;;;18.90;52.30;;;;;;4974182;28;20026;-77
2022/03/31 11:40:51;;;;;;;4.05;2.17;;;19.00;52.30;;;;;;4956963;28;20027;-75
2022/03/31 11:43:18;;;;;;;5.80;3.28;;;19.00;52.20;;;;;;4977886;28;20034;-77
2022/03/31 11:45:53;;;;;;;8.15;4.32;;;19.00;51.80;;;;;;4996437;28;20550;-76
2022/03/31 11:48:22;;;;;;;10.88;6.22;;;19.10;51.70;;;;;;4994234;28;20023;-75
2022/03/31 11:50:56;;;;;;;17.92;9.30;;;19.20;51.80;;;;;;4975681;28;20030;-76
2022/03/31 11:53:31;;;;;;;20.10;11.18;;;19.20;52.30;;;;;;4993446;28;20109;-74
2022/03/31 11:56:04;;;;;;;23.70;11.50;;;19.30;52.00;;;;;;4997021;28;20487;-77
2022/03/31 11:58:33;;;;;;;16.63;8.02;;;19.40;52.00;;;;;;4997909;28;20030;-76
2022/03/31 12:01:00;;;;;;;17.50;8.18;;;19.30;51.70;;;;;;4956969;28;20383;-75
2022/03/31 12:03:36;;;;;;;15.50;7.40;;;19.30;51.70;;;;;;4965308;28;20026;-76
2022/03/31 12:06:04;;;;;;;17.42;8.93;;;19.30;51.70;;;;;;4992560;28;20037;-76
2022/03/31 12:08:30;;;;;;;15.95;7.90;;;19.30;52.00;;;;;;4975210;28;20478;-76
2022/03/31 12:10:57;;;;;;;24.52;8.85;;;19.20;52.20;;;;;;4975541;28;20073;-75
2022/03/31 12:13:25;;;;;;;18.33;8.50;;;19.20;52.90;;;;;;4974867;28;20121;-76
2022/03/31 12:16:21;;;;;;;16.35;8.25;;;19.20;52.40;;;;;;4992800;28;20457;-75
2022/03/31 12:18:58;;;;;;;14.48;6.75;;;19.20;52.40;;;;;;4963459;28;20037;-76
2022/03/31 12:21:28;;;;;;;18.95;9.00;;;19.10;52.40;;;;;;4990748;28;20096;-75
2022/03/31 12:24:01;;;;;;;15.57;7.40;;;19.10;52.30;;;;;;4974001;28;20030;-76
2022/03/31 12:26:26;;;;;;;12.00;5.47;;;19.10;52.30;;;;;;4992061;28;20030;-76
2022/03/31 12:28:52;;;;;;;16.48;6.93;;;19.10;52.10;;;;;;4991552;28;20026;-76
2022/03/31 12:31:30;;;;;;;14.48;6.50;;;19.20;52.00;;;;;;4992305;28;20506;-76
2022/03/31 12:33:59;;;;;;;11.10;5.32;;;19.20;52.40;;;;;;4992240;28;20085;-76
2022/03/31 12:36:27;;;;;;;12.88;5.22;;;19.30;51.90;;;;;;4992128;28;20022;-76
2022/03/31 12:38:55;;;;;;;10.55;4.32;;;19.30;51.80;;;;;;4992126;28;20030;-77
2022/03/31 12:41:36;;;;;;;10.85;5.05;;;19.30;51.70;;;;;;4974382;28;20049;-75
2022/03/31 12:44:11;;;;;;;8.40;4.35;;;19.20;51.60;;;;;;4991533;28;20065;-77
2022/03/31 12:47:00;;;;;;;7.70;4.18;;;19.20;51.60;;;;;;4990486;28;20026;-77
2022/03/31 12:49:32;;;;;;;8.35;3.95;;;19.30;51.40;;;;;;4988708;28;20041;-75
2022/03/31 12:52:01;;;;;;;9.85;4.47;;;19.30;51.10;;;;;;4992045;28;20058;-76
2022/03/31 12:54:46;;;;;;;10.38;4.25;;;19.30;51.00;;;;;;4991987;28;20026;-75